Aviation Digital Data Service (ADDS)

Output produced by METARs form (2309 UTC 21 May 2022)
found at http://www.aviationweather.gov/metar/data/
 
GFLL 212300Z 27007KT 9999 SCT010 FEW027CB 25/23 Q1014 RMK CB- NE
TAF GFLL 212220Z 2200/2306 30006KT 9999 SCT011 FEW026CB 
     PROB30 
     TEMPO 2201/2205 30308KT 6000 TSRA BKN009 FEW025CB 
     BECMG 2206/2208 VRB02KT 9999 BKN010 
     TEMPO 2210/2214 26005KT BKN012 FEW026CB